createdAt,value
2019-02-19T00:00:49.274Z,578.9
2019-02-19T00:01:51.714Z,578.8
2019-02-19T00:02:54.145Z,578.9
2019-02-19T00:03:56.573Z,578.8
2019-02-19T00:04:58.991Z,578.7
2019-02-19T00:06:01.426Z,578.4
2019-02-19T00:07:03.854Z,578.3
2019-02-19T00:08:06.025Z,578.5
2019-02-19T00:09:08.448Z,578.5
2019-02-19T00:10:10.613Z,578.8
2019-02-19T00:11:12.763Z,578.7
2019-02-19T00:12:15.181Z,578.6
2019-02-19T00:13:17.613Z,578.5
2019-02-19T00:14:20.038Z,578.3
2019-02-19T00:15:22.656Z,578.2
2019-02-19T00:16:24.785Z,578.6
2019-02-19T00:17:26.976Z,578.3
2019-02-19T00:18:29.403Z,578.3
2019-02-19T00:19:31.826Z,578.1
2019-02-19T00:20:34.255Z,578.3
2019-02-19T00:21:36.426Z,578.4
2019-02-19T00:22:38.843Z,578.6
2019-02-19T00:23:41.295Z,577.9
2019-02-19T00:24:43.731Z,577.9
2019-02-19T00:25:45.887Z,577.9
2019-02-19T00:26:48.055Z,577.8
2019-02-19T00:27:50.227Z,577.8
2019-02-19T00:28:52.676Z,577.7
2019-02-19T00:29:55.099Z,578.1
2019-02-19T00:30:57.270Z,578
2019-02-19T00:31:59.438Z,577.7
2019-02-19T00:33:01.870Z,577.9
2019-02-19T00:34:04.303Z,577.8
2019-02-19T00:35:06.456Z,577.8
2019-02-19T00:36:08.333Z,577.7
2019-02-19T00:37:10.765Z,577.8
2019-02-19T00:38:13.213Z,577.8
2019-02-19T00:39:15.376Z,577.7
2019-02-19T00:40:17.806Z,578.2
2019-02-19T00:41:19.983Z,578
2019-02-19T00:42:22.150Z,578.3
2019-02-19T00:43:24.586Z,578.1
2019-02-19T00:44:26.768Z,578.1
2019-02-19T00:45:28.903Z,578.2
2019-02-19T00:46:31.335Z,578.4
2019-02-19T00:47:33.514Z,578.5
2019-02-19T00:48:35.373Z,577.9
2019-02-19T00:49:37.797Z,578.1
2019-02-19T00:50:40.225Z,578.5
2019-02-19T00:51:42.117Z,578.6
2019-02-19T00:52:44.559Z,578.2
2019-02-19T00:53:47.003Z,578.4
2019-02-19T00:54:49.428Z,578.4
2019-02-19T00:55:51.863Z,578.3
2019-02-19T00:56:54.292Z,578.4
2019-02-19T00:57:58.184Z,578.3
2019-02-19T00:59:00.343Z,578.2
2019-02-19T01:00:02.749Z,578.1
2019-02-19T01:01:05.173Z,578.1
2019-02-19T01:02:07.309Z,578.1
2019-02-19T01:03:09.475Z,577.9
2019-02-19T01:04:12.473Z,577.9
2019-02-19T01:05:14.367Z,578.1
2019-02-19T01:06:16.790Z,578.2
2019-02-19T01:07:18.954Z,578.3
2019-02-19T01:08:21.371Z,578.2
2019-02-19T01:09:23.556Z,578
2019-02-19T01:10:25.133Z,578.3
2019-02-19T01:11:27.295Z,578.3
2019-02-19T01:12:29.718Z,578.2
2019-02-19T01:13:31.871Z,578.4
2019-02-19T01:14:34.322Z,578.3
2019-02-19T01:15:36.761Z,578
2019-02-19T01:16:39.191Z,578.3
2019-02-19T01:17:41.371Z,578.5
2019-02-19T01:18:43.547Z,578.7
2019-02-19T01:19:45.973Z,578.4
2019-02-19T01:20:48.144Z,578.7
2019-02-19T01:21:50.612Z,578
2019-02-19T01:22:52.492Z,578.6
2019-02-19T01:23:54.352Z,578.9
2019-02-19T01:24:56.767Z,578.7
2019-02-19T01:25:59.191Z,578.7
2019-02-19T01:27:01.610Z,578.3
2019-02-19T01:28:04.037Z,578.7
2019-02-19T01:29:06.211Z,578.9
2019-02-19T01:30:08.374Z,579
2019-02-19T01:31:10.530Z,578.6
2019-02-19T01:32:12.951Z,578.8
2019-02-19T01:33:15.125Z,578.4
2019-02-19T01:34:17.039Z,578.8
2019-02-19T01:35:19.479Z,578.6
2019-02-19T01:36:22.522Z,578.7
2019-02-19T01:37:24.378Z,578.8
2019-02-19T01:38:26.254Z,578.7
2019-02-19T01:39:28.121Z,578.8
2019-02-19T01:40:31.154Z,578.7
2019-02-19T01:41:33.322Z,578.5
2019-02-19T01:42:35.467Z,578.4
2019-02-19T01:43:37.370Z,578.6
2019-02-19T01:44:39.782Z,578.6
2019-02-19T01:45:41.931Z,578.3
2019-02-19T01:46:43.836Z,578.6
2019-02-19T01:47:46.266Z,578.8
2019-02-19T01:48:48.692Z,578.4
2019-02-19T01:49:50.564Z,578.3
2019-02-19T01:50:52.716Z,578.9
2019-02-19T01:51:54.869Z,578.7
2019-02-19T01:52:57.302Z,578.8
2019-02-19T01:53:59.462Z,578.7
2019-02-19T01:55:01.897Z,578.8
2019-02-19T01:56:04.063Z,578.8
2019-02-19T01:57:05.947Z,578.7
2019-02-19T01:58:08.115Z,578.6
2019-02-19T01:59:10.011Z,578.8
2019-02-19T02:00:12.441Z,578.6
2019-02-19T02:01:14.594Z,578.8
2019-02-19T02:02:17.018Z,578.4
2019-02-19T02:03:19.173Z,578.6
2019-02-19T02:04:21.305Z,578.9
2019-02-19T02:05:23.726Z,579
2019-02-19T02:06:26.165Z,578.7
2019-02-19T02:07:28.333Z,578.6
2019-02-19T02:08:30.490Z,578.4
2019-02-19T02:09:32.395Z,578.7
2019-02-19T02:10:34.554Z,578.6
2019-02-19T02:11:36.983Z,578.9
2019-02-19T02:12:39.140Z,578.8
2019-02-19T02:13:41.026Z,578.7
2019-02-19T02:14:43.202Z,578.7
2019-02-19T02:15:45.632Z,578.6
2019-02-19T02:16:47.781Z,578.5
2019-02-19T02:17:50.203Z,578.6
2019-02-19T02:18:52.628Z,578.7
2019-02-19T02:19:55.054Z,578.5
2019-02-19T02:20:57.214Z,578.6
2019-02-19T02:21:59.641Z,578.7
2019-02-19T02:23:01.518Z,578.4
2019-02-19T02:24:03.939Z,578.4
2019-02-19T02:25:06.370Z,578.4
2019-02-19T02:26:08.810Z,578.7
2019-02-19T02:27:10.955Z,578.3
2019-02-19T02:28:12.836Z,578.5
2019-02-19T02:29:15.256Z,578.5
2019-02-19T02:30:17.407Z,578.5
2019-02-19T02:31:18.736Z,578
2019-02-19T02:32:21.162Z,578.2
2019-02-19T02:33:23.020Z,578.3
2019-02-19T02:34:25.462Z,578.1
2019-02-19T02:35:27.882Z,578
2019-02-19T02:36:30.033Z,578
2019-02-19T02:37:32.176Z,577.7
2019-02-19T02:38:34.335Z,578.1
2019-02-19T02:39:36.503Z,578
2019-02-19T02:40:39.137Z,578
2019-02-19T02:41:41.565Z,577.9
2019-02-19T02:42:43.990Z,578
2019-02-19T02:43:46.141Z,577.5
2019-02-19T02:44:48.586Z,577.7
2019-02-19T02:46:55.718Z,577.5
2019-02-19T02:47:57.601Z,577.5
2019-02-19T02:48:59.753Z,577.4
2019-02-19T02:50:01.957Z,577.1
2019-02-19T02:51:04.090Z,577.4
2019-02-19T02:52:06.282Z,577.2
2019-02-19T02:53:08.438Z,577.3
2019-02-19T02:54:10.851Z,576.9
2019-02-19T02:55:12.731Z,577.5
2019-02-19T02:56:15.162Z,576.8
2019-02-19T02:57:16.810Z,576.8
2019-02-19T02:58:18.694Z,576.7
2019-02-19T02:59:20.836Z,576.8
2019-02-19T03:00:23.266Z,576.7
2019-02-19T03:01:25.409Z,576.3
2019-02-19T03:02:27.581Z,576.4
2019-02-19T03:03:30.014Z,576.4
2019-02-19T03:04:32.166Z,576.1
2019-02-19T03:05:34.304Z,576.2
2019-02-19T03:06:35.904Z,576.3
2019-02-19T03:07:38.054Z,576
2019-02-19T03:08:40.485Z,576.2
2019-02-19T03:09:42.914Z,575.6
2019-02-19T03:10:44.792Z,575.6
2019-02-19T03:11:46.924Z,575.6
2019-02-19T03:12:49.365Z,575.7
2019-02-19T03:13:51.776Z,575.8
2019-02-19T03:14:54.206Z,575.5
2019-02-19T03:17:01.604Z,575.4
2019-02-19T03:18:04.041Z,575.1
2019-02-19T03:19:06.479Z,575.3
2019-02-19T03:20:08.912Z,575.3
2019-02-19T03:21:11.337Z,575.4
2019-02-19T03:22:13.231Z,575.4
2019-02-19T03:23:15.644Z,575.2
2019-02-19T03:24:17.804Z,575.4
2019-02-19T03:25:20.228Z,575.2
2019-02-19T03:26:22.652Z,575.1
2019-02-19T03:27:25.102Z,575.6
2019-02-19T03:28:27.249Z,575.1
2019-02-19T03:29:29.429Z,575.1
2019-02-19T03:30:31.873Z,575.1
2019-02-19T03:31:34.056Z,575.1
2019-02-19T03:32:36.213Z,575.1
2019-02-19T03:33:38.660Z,574.8
2019-02-19T03:34:40.830Z,574.6
2019-02-19T03:35:42.697Z,574.9
2019-02-19T03:36:44.844Z,574.8
2019-02-19T03:37:47.554Z,575
2019-02-19T03:38:49.983Z,574.5
2019-02-19T03:39:52.144Z,574.7
2019-02-19T03:40:54.313Z,574.1
2019-02-19T03:41:56.484Z,574.4
2019-02-19T03:42:58.902Z,574.2
2019-02-19T03:44:01.064Z,574.1
2019-02-19T03:45:03.493Z,573.9
2019-02-19T03:47:10.906Z,573.7
2019-02-19T03:48:13.050Z,573.6
2019-02-19T03:49:14.908Z,573.3
2019-02-19T03:50:17.324Z,573.5
2019-02-19T03:51:19.767Z,573.2
2019-02-19T03:52:22.186Z,573.2
2019-02-19T03:53:24.360Z,573.1
2019-02-19T03:54:26.785Z,573.2
2019-02-19T03:55:29.216Z,572.9
2019-02-19T03:56:31.360Z,573
2019-02-19T03:57:34.943Z,572.9
2019-02-19T03:58:37.153Z,572.8
2019-02-19T03:59:39.349Z,572.9
2019-02-19T04:00:41.839Z,572.2
2019-02-19T04:01:44.310Z,572.2
2019-02-19T04:02:46.508Z,571.9
2019-02-19T04:03:48.997Z,571.7
2019-02-19T04:04:51.448Z,572.2
2019-02-19T04:05:53.626Z,572.4
2019-02-19T04:06:56.058Z,572.2
2019-02-19T04:07:58.212Z,572.6
2019-02-19T04:09:00.676Z,572.5
2019-02-19T04:10:03.113Z,572.1
2019-02-19T04:11:05.284Z,572.4
2019-02-19T04:12:07.707Z,571.9
2019-02-19T04:13:09.861Z,572.6
2019-02-19T04:14:12.291Z,571.5
2019-02-19T04:15:14.444Z,571.9
2019-02-19T04:17:21.589Z,571.9
2019-02-19T04:18:23.724Z,571.4
2019-02-19T04:19:26.150Z,571.1
2019-02-19T04:20:28.302Z,571.4
2019-02-19T04:21:30.177Z,571.2
2019-02-19T04:22:32.588Z,571.3
2019-02-19T04:23:34.202Z,571.2
2019-02-19T04:24:36.632Z,571.2
2019-02-19T04:25:38.794Z,571.2
2019-02-19T04:26:41.231Z,571.1
2019-02-19T04:27:43.655Z,571.2
2019-02-19T04:28:46.084Z,571.3
2019-02-19T04:29:48.242Z,571.5
2019-02-19T04:30:50.406Z,571
2019-02-19T04:31:52.540Z,571.2
2019-02-19T04:32:54.690Z,571.2
2019-02-19T04:33:57.107Z,571.3
2019-02-19T04:34:59.533Z,571.1
2019-02-19T04:36:01.959Z,571
2019-02-19T04:37:04.499Z,571.2
2019-02-19T04:38:06.967Z,571.1
2019-02-19T04:39:08.830Z,570.8
2019-02-19T04:40:11.267Z,570.8
2019-02-19T04:41:13.125Z,571.1
2019-02-19T04:42:15.275Z,570.9
2019-02-19T04:43:17.704Z,571.1
2019-02-19T04:44:20.134Z,571
2019-02-19T04:45:22.564Z,570.6
2019-02-19T04:47:29.703Z,571.5
2019-02-19T04:48:31.865Z,571.8
2019-02-19T04:49:33.786Z,571.5
2019-02-19T04:50:36.213Z,571.6
2019-02-19T04:51:38.361Z,571.4
2019-02-19T04:52:40.788Z,571.2
2019-02-19T04:53:42.934Z,571.4
2019-02-19T04:54:45.365Z,572.1
2019-02-19T04:55:47.528Z,571.7
2019-02-19T04:56:49.658Z,571.7
2019-02-19T04:57:52.091Z,571.8
2019-02-19T04:58:54.241Z,571.8
2019-02-19T04:59:56.162Z,571.9
2019-02-19T05:00:58.313Z,572
2019-02-19T05:02:00.216Z,572
2019-02-19T05:03:02.678Z,571.7
2019-02-19T05:04:05.103Z,572.1
2019-02-19T05:05:07.548Z,571.8
2019-02-19T05:06:09.972Z,571.7
2019-02-19T05:07:12.402Z,572.1
2019-02-19T05:08:14.825Z,571.8
2019-02-19T05:09:16.979Z,571.9
2019-02-19T05:10:19.134Z,571.9
2019-02-19T05:11:21.282Z,571.9
2019-02-19T05:12:23.693Z,571.8
2019-02-19T05:13:26.120Z,572.2
2019-02-19T05:14:28.005Z,572.3
2019-02-19T05:15:30.431Z,572.1
2019-02-19T05:17:37.569Z,572.3
2019-02-19T05:18:39.997Z,572
2019-02-19T05:19:42.410Z,571.9
2019-02-19T05:20:44.572Z,572.1
2019-02-19T05:21:46.764Z,572.1
2019-02-19T05:22:48.919Z,571.8
2019-02-19T05:23:51.340Z,571.9
2019-02-19T05:24:53.771Z,571.6
2019-02-19T05:25:56.212Z,571.6
2019-02-19T05:26:58.370Z,571.6
2019-02-19T05:28:00.811Z,571.6
2019-02-19T05:29:02.981Z,571.3
2019-02-19T05:30:05.149Z,571.2
2019-02-19T05:31:07.573Z,571.1
2019-02-19T05:32:10.023Z,571
2019-02-19T05:33:11.882Z,570.7
2019-02-19T05:34:14.032Z,570.9
2019-02-19T05:35:16.470Z,570.7
2019-02-19T05:36:18.633Z,570.4
2019-02-19T05:37:20.782Z,570.6
2019-02-19T05:38:23.214Z,570.7
2019-02-19T05:39:25.640Z,570.3
2019-02-19T05:40:27.804Z,570.3
2019-02-19T05:41:30.234Z,570.1
2019-02-19T05:42:32.364Z,570.3
2019-02-19T05:43:34.794Z,570
2019-02-19T05:44:37.226Z,569.5
2019-02-19T05:45:39.387Z,569.6
2019-02-19T05:47:47.284Z,569.4
2019-02-19T05:48:49.451Z,569
2019-02-19T05:49:51.881Z,569.4
2019-02-19T05:50:54.302Z,569.5
2019-02-19T05:51:56.186Z,569.1
2019-02-19T05:52:58.361Z,569.4
2019-02-19T05:54:00.525Z,569.6
2019-02-19T05:55:02.734Z,569.6
2019-02-19T05:56:04.877Z,569.5
2019-02-19T05:57:07.035Z,569.2
2019-02-19T05:58:09.462Z,569.3
2019-02-19T05:59:11.338Z,569.4
2019-02-19T06:00:13.487Z,569.2
2019-02-19T06:01:15.957Z,569.1
2019-02-19T06:02:18.383Z,569.2
2019-02-19T06:03:20.550Z,569.1
2019-02-19T06:04:22.412Z,569.1
2019-02-19T06:05:24.272Z,569.1
2019-02-19T06:06:26.705Z,568.9
2019-02-19T06:07:29.135Z,568.7
2019-02-19T06:08:31.036Z,569.2
2019-02-19T06:09:33.216Z,568.9
2019-02-19T06:10:35.380Z,568.9
2019-02-19T06:11:37.538Z,568.9
2019-02-19T06:12:39.725Z,568.8
2019-02-19T06:13:42.145Z,569.2
2019-02-19T06:14:44.570Z,568.4
2019-02-19T06:15:46.737Z,568.9
2019-02-19T06:16:48.880Z,568.4
2019-02-19T06:17:51.317Z,568.7
2019-02-19T06:18:53.756Z,569
2019-02-19T06:19:55.941Z,568.7
2019-02-19T06:20:58.373Z,568.9
2019-02-19T06:22:00.814Z,568.6
2019-02-19T06:23:03.003Z,568.5
2019-02-19T06:24:05.430Z,568.1
2019-02-19T06:25:07.960Z,568
2019-02-19T06:26:10.118Z,568.2
2019-02-19T06:27:12.549Z,567.9
2019-02-19T06:28:14.703Z,568
2019-02-19T06:29:16.887Z,567.8
2019-02-19T06:30:19.312Z,567.5
2019-02-19T06:31:21.466Z,567.4
2019-02-19T06:32:23.913Z,567.4
2019-02-19T06:33:26.346Z,567.4
2019-02-19T06:34:28.226Z,567.4
2019-02-19T06:35:30.373Z,567.4
2019-02-19T06:36:32.811Z,567
2019-02-19T06:37:34.963Z,567.4
2019-02-19T06:38:37.125Z,566.8
2019-02-19T06:39:39.571Z,566.9
2019-02-19T06:40:41.754Z,567.1
2019-02-19T06:41:43.915Z,567.1
2019-02-19T06:42:46.343Z,566.9
2019-02-19T06:43:48.515Z,566.6
2019-02-19T06:44:50.669Z,566.6
2019-02-19T06:45:53.108Z,566.8
2019-02-19T06:46:55.541Z,566.9
2019-02-19T06:47:57.703Z,566.4
2019-02-19T06:48:59.861Z,566.5
2019-02-19T06:50:02.058Z,566.5
2019-02-19T06:51:04.492Z,566
2019-02-19T06:52:06.615Z,566
2019-02-19T06:53:08.783Z,565.9
2019-02-19T06:54:10.953Z,565.8
2019-02-19T06:55:13.095Z,565.7
2019-02-19T06:56:15.513Z,565.4
2019-02-19T06:57:17.391Z,565.6
2019-02-19T06:58:19.660Z,565.8
2019-02-19T06:59:21.629Z,566
2019-02-19T07:00:23.802Z,565.6
2019-02-19T07:01:26.241Z,565.6
2019-02-19T07:02:28.691Z,565.4
2019-02-19T07:03:30.860Z,565.2
2019-02-19T07:04:33.029Z,565.5
2019-02-19T07:05:34.902Z,565.4
2019-02-19T07:06:37.065Z,565.1
2019-02-19T07:07:39.486Z,565.7
2019-02-19T07:08:41.644Z,565.4
2019-02-19T07:09:43.805Z,565.1
2019-02-19T07:10:45.953Z,565.8
2019-02-19T07:11:48.085Z,565.4
2019-02-19T07:12:50.237Z,565.6
2019-02-19T07:13:52.387Z,565.7
2019-02-19T07:14:54.565Z,565.5
2019-02-19T07:15:56.984Z,565.8
2019-02-19T07:16:59.408Z,565.7
2019-02-19T07:18:01.559Z,565.4
2019-02-19T07:19:03.985Z,565.8
2019-02-19T07:20:05.864Z,565.4
2019-02-19T07:21:08.075Z,565.8
2019-02-19T07:22:10.481Z,565.8
2019-02-19T07:23:12.919Z,565.5
2019-02-19T07:24:15.337Z,565.9
2019-02-19T07:25:17.762Z,565.8
2019-02-19T07:26:20.189Z,565.7
2019-02-19T07:27:22.331Z,566
2019-02-19T07:28:24.771Z,565.7
2019-02-19T07:29:26.899Z,565.8
2019-02-19T07:30:29.329Z,565.6
2019-02-19T07:31:31.491Z,565.9
2019-02-19T07:32:33.925Z,565.9
2019-02-19T07:33:35.787Z,565.8
2019-02-19T07:34:38.214Z,566
2019-02-19T07:35:40.666Z,566.1
2019-02-19T07:36:43.291Z,565.8
2019-02-19T07:37:44.918Z,565.7
2019-02-19T07:38:47.083Z,565.3
2019-02-19T07:39:49.247Z,565.6
2019-02-19T07:40:51.686Z,565.9
2019-02-19T07:41:53.849Z,565.6
2019-02-19T07:42:55.485Z,565.7
2019-02-19T07:43:57.927Z,565.5
2019-02-19T07:45:00.365Z,565.6
2019-02-19T07:46:02.786Z,565.6
2019-02-19T07:47:05.211Z,565.6
2019-02-19T07:48:07.393Z,565.8
2019-02-19T07:49:09.286Z,565.6
2019-02-19T07:50:11.718Z,566.2
2019-02-19T07:51:14.148Z,566
2019-02-19T07:52:16.297Z,566.3
2019-02-19T07:53:18.176Z,566
2019-02-19T07:54:20.335Z,566.2
2019-02-19T07:55:22.765Z,565.9
2019-02-19T07:56:24.683Z,565.8
2019-02-19T07:57:26.559Z,565.7
2019-02-19T07:58:28.774Z,565.7
2019-02-19T07:59:31.194Z,565.5
2019-02-19T08:00:33.623Z,565.6
2019-02-19T08:01:36.054Z,565.6
2019-02-19T08:02:38.478Z,566.1
2019-02-19T08:03:40.678Z,565.8
2019-02-19T08:04:42.838Z,566
2019-02-19T08:05:45.071Z,566.3
2019-02-19T08:06:47.262Z,565.9
2019-02-19T08:07:49.424Z,566.2
2019-02-19T08:08:51.851Z,566.3
2019-02-19T08:09:54.024Z,566.4
2019-02-19T08:10:56.455Z,566.2
2019-02-19T08:11:58.885Z,566.2
2019-02-19T08:13:01.045Z,565.8
2019-02-19T08:14:03.484Z,566
2019-02-19T08:15:05.911Z,565.8
2019-02-19T08:16:08.339Z,565.9
2019-02-19T08:17:10.209Z,565.8
2019-02-19T08:18:12.679Z,565.3
2019-02-19T08:19:15.108Z,565.7
2019-02-19T08:20:18.336Z,565.9
2019-02-19T08:21:20.499Z,566.2
2019-02-19T08:22:22.667Z,566.3
2019-02-19T08:23:24.571Z,565.8
2019-02-19T08:24:27.007Z,565.8
2019-02-19T08:25:29.439Z,566.1
2019-02-19T08:26:31.605Z,565.8
2019-02-19T08:27:33.472Z,565.9
2019-02-19T08:28:35.634Z,566.1
2019-02-19T08:29:37.523Z,565.8
2019-02-19T08:30:39.968Z,566
2019-02-19T08:31:42.393Z,565.8
2019-02-19T08:32:44.826Z,566.2
2019-02-19T08:33:47.267Z,566.1
2019-02-19T08:34:49.424Z,565.6
2019-02-19T08:35:51.850Z,565.9
2019-02-19T08:36:54.014Z,565.5
2019-02-19T08:37:55.882Z,565.9
2019-02-19T08:38:58.333Z,565.9
2019-02-19T08:40:00.302Z,566.1
2019-02-19T08:41:02.727Z,566.1
2019-02-19T08:42:05.145Z,566
2019-02-19T08:43:07.583Z,565.6
2019-02-19T08:44:10.480Z,566.2
2019-02-19T08:45:12.919Z,565.8
2019-02-19T08:46:15.355Z,565.6
2019-02-19T08:47:17.803Z,565.7
2019-02-19T08:48:20.220Z,566
2019-02-19T08:49:22.654Z,565.4
2019-02-19T08:50:24.814Z,565.9
2019-02-19T08:51:26.981Z,565.7
2019-02-19T08:52:29.405Z,565.9
2019-02-19T08:53:31.838Z,565.9
2019-02-19T08:54:33.747Z,565.9
2019-02-19T08:55:36.891Z,565.7
2019-02-19T08:56:39.088Z,566.1
2019-02-19T08:57:41.524Z,565.8
2019-02-19T08:58:43.681Z,566.2
2019-02-19T08:59:46.114Z,566.4
2019-02-19T09:00:48.555Z,566.2
2019-02-19T09:01:50.706Z,566
2019-02-19T09:02:53.388Z,566.1
2019-02-19T09:03:55.835Z,565.9
2019-02-19T09:04:58.284Z,566
2019-02-19T09:06:00.724Z,565.7
2019-02-19T09:07:02.888Z,566.1
2019-02-19T09:08:05.057Z,566.2
2019-02-19T09:09:07.500Z,566.3
2019-02-19T09:10:09.651Z,565.9
2019-02-19T09:11:12.074Z,565.9
2019-02-19T09:12:14.228Z,566.1
2019-02-19T09:13:16.652Z,566
2019-02-19T09:14:19.073Z,566
2019-02-19T09:15:21.264Z,566
2019-02-19T09:16:23.705Z,566.1
2019-02-19T09:17:25.858Z,566.2
2019-02-19T09:18:28.024Z,566.2
2019-02-19T09:19:30.281Z,566.1
2019-02-19T09:20:32.438Z,565.6
2019-02-19T09:21:34.585Z,565.6
2019-02-19T09:22:36.765Z,565.6
2019-02-19T09:23:39.219Z,565.4
2019-02-19T09:24:41.419Z,565
2019-02-19T09:25:43.838Z,565.5
2019-02-19T09:26:45.975Z,565.2
2019-02-19T09:27:48.135Z,565.1
2019-02-19T09:28:50.487Z,564.6
2019-02-19T09:29:52.364Z,564.6
2019-02-19T09:30:54.803Z,564.8
2019-02-19T09:31:56.678Z,565.1
2019-02-19T09:32:59.116Z,565.5
2019-02-19T09:34:01.261Z,565.2
2019-02-19T09:35:03.398Z,565.3
2019-02-19T09:36:05.820Z,565.2
2019-02-19T09:37:07.710Z,565.2
2019-02-19T09:38:10.146Z,565.4
2019-02-19T09:39:12.324Z,565.5
2019-02-19T09:40:14.743Z,565.3
2019-02-19T09:41:17.176Z,565.8
2019-02-19T09:42:19.606Z,565
2019-02-19T09:43:22.028Z,565.4
2019-02-19T09:44:24.463Z,565.8
2019-02-19T09:45:26.913Z,565.3
2019-02-19T09:46:29.064Z,565.2
2019-02-19T09:47:31.519Z,565.5
2019-02-19T09:48:33.663Z,565.2
2019-02-19T09:49:36.109Z,565.7
2019-02-19T09:50:38.279Z,565.3
2019-02-19T09:51:40.705Z,565
2019-02-19T09:52:42.854Z,565.3
2019-02-19T09:53:45.277Z,565.1
2019-02-19T09:54:47.476Z,565.7
2019-02-19T09:55:49.896Z,565.2
2019-02-19T09:56:52.324Z,565.7
2019-02-19T09:57:54.757Z,565.2
2019-02-19T09:58:56.905Z,565.1
2019-02-19T09:59:58.514Z,565
2019-02-19T10:01:01.017Z,565.3
2019-02-19T10:02:03.491Z,565.1
2019-02-19T10:03:05.656Z,565.1
2019-02-19T10:04:08.085Z,564.8
2019-02-19T10:05:10.510Z,564.8
2019-02-19T10:06:12.664Z,565.2
2019-02-19T10:07:14.566Z,564.7
2019-02-19T10:08:16.991Z,564.8
2019-02-19T10:09:19.152Z,565
2019-02-19T10:10:21.576Z,564.9
2019-02-19T10:11:23.450Z,564.9
2019-02-19T10:12:25.884Z,565
2019-02-19T10:13:28.321Z,565
2019-02-19T10:14:30.480Z,565.1
2019-02-19T10:15:32.900Z,565.1
2019-02-19T10:17:40.314Z,564.9
2019-02-19T10:18:42.736Z,565.1
2019-02-19T10:19:45.168Z,564.9
2019-02-19T10:20:47.606Z,565.1
2019-02-19T10:21:49.770Z,565.1
2019-02-19T10:22:51.655Z,564.8
2019-02-19T10:23:53.804Z,564.8
2019-02-19T10:24:56.236Z,565
2019-02-19T10:25:58.660Z,564.8
2019-02-19T10:27:01.085Z,564.8
2019-02-19T10:28:03.524Z,564.5
2019-02-19T10:29:05.942Z,565.2
2019-02-19T10:30:08.375Z,565.1
2019-02-19T10:31:10.805Z,564.6
2019-02-19T10:32:12.954Z,565.1
2019-02-19T10:33:15.385Z,565.6
2019-02-19T10:34:17.817Z,565.5
2019-02-19T10:35:20.260Z,565.5
2019-02-19T10:36:22.441Z,565.5
2019-02-19T10:37:24.872Z,565.5
2019-02-19T10:38:27.048Z,565.6
2019-02-19T10:39:29.501Z,565.6
2019-02-19T10:40:31.657Z,565.4
2019-02-19T10:41:33.812Z,565.4
2019-02-19T10:42:36.234Z,565.6
2019-02-19T10:43:38.399Z,565.7
2019-02-19T10:44:40.826Z,565.5
2019-02-19T10:45:43.251Z,565.3
2019-02-19T10:46:45.406Z,565.5
2019-02-19T10:47:47.837Z,564.9
2019-02-19T10:48:49.964Z,565.8
2019-02-19T10:49:52.413Z,565.3
2019-02-19T10:50:54.574Z,565
2019-02-19T10:51:56.746Z,565.4
2019-02-19T10:52:58.914Z,565.5
2019-02-19T10:54:01.345Z,565.3
2019-02-19T10:55:03.775Z,565.1
2019-02-19T10:56:06.225Z,565.5
2019-02-19T10:57:08.380Z,565.2
2019-02-19T10:58:12.569Z,565.4
2019-02-19T10:59:14.989Z,565
2019-02-19T11:00:17.404Z,564.8
2019-02-19T11:01:19.284Z,565.3
2019-02-19T11:02:21.735Z,565.5
2019-02-19T11:03:24.175Z,565.3
2019-02-19T11:04:26.604Z,565.5
2019-02-19T11:05:29.054Z,565.2
2019-02-19T11:06:31.510Z,565.8
2019-02-19T11:07:33.944Z,565.6
2019-02-19T11:08:36.082Z,565.7
2019-02-19T11:09:38.257Z,565.8
2019-02-19T11:10:40.705Z,565.6
2019-02-19T11:11:43.151Z,565.9
2019-02-19T11:12:44.194Z,565.9
2019-02-19T11:13:46.396Z,566.2
2019-02-19T11:14:48.822Z,566.1
2019-02-19T11:15:51.249Z,566.2
2019-02-19T11:16:53.674Z,566.2
2019-02-19T11:17:55.813Z,566.1
2019-02-19T11:18:58.239Z,566.2
2019-02-19T11:20:00.317Z,566.3
2019-02-19T11:21:02.769Z,566.2
2019-02-19T11:22:05.247Z,566.6
2019-02-19T11:23:07.684Z,566.7
2019-02-19T11:24:10.149Z,566.4
2019-02-19T11:25:12.574Z,566.6
2019-02-19T11:26:14.447Z,567
2019-02-19T11:27:18.724Z,566.9
2019-02-19T11:28:20.918Z,566.9
2019-02-19T11:29:23.359Z,566.7
2019-02-19T11:30:25.519Z,566.1
2019-02-19T11:31:27.954Z,566.5
2019-02-19T11:32:30.386Z,566.9
2019-02-19T11:33:32.815Z,566.6
2019-02-19T11:34:35.253Z,566.6
2019-02-19T11:35:37.404Z,566.3
2019-02-19T11:36:39.856Z,566.7
2019-02-19T11:37:42.297Z,566.4
2019-02-19T11:38:44.748Z,566.6
2019-02-19T11:39:46.636Z,567.3
2019-02-19T11:40:49.076Z,566.9
2019-02-19T11:41:51.242Z,566.9
2019-02-19T11:42:53.676Z,566.7
2019-02-19T11:43:56.114Z,567
2019-02-19T11:44:58.266Z,567.1
2019-02-19T11:46:00.408Z,566.8
2019-02-19T11:47:02.566Z,567.3
2019-02-19T11:48:05.050Z,566.8
2019-02-19T11:49:07.485Z,567.2
2019-02-19T11:50:09.646Z,567.2
2019-02-19T11:51:11.806Z,567
2019-02-19T11:52:14.245Z,567.4
2019-02-19T11:53:16.668Z,567.2
2019-02-19T11:54:19.093Z,567.4
2019-02-19T11:55:21.537Z,567.3
2019-02-19T11:56:23.700Z,567.5
2019-02-19T11:57:26.120Z,567.6
2019-02-19T11:58:28.277Z,567.9
2019-02-19T11:59:30.731Z,567.9
2019-02-19T12:00:33.183Z,568.2
2019-02-19T12:01:35.335Z,568
2019-02-19T12:02:37.510Z,568.5
2019-02-19T12:03:39.937Z,568.3
2019-02-19T12:04:42.373Z,568.6
2019-02-19T12:05:44.831Z,568.7
2019-02-19T12:06:46.991Z,568.5
2019-02-19T12:07:49.428Z,568.5
2019-02-19T12:08:51.855Z,568.4
2019-02-19T12:09:54.032Z,568.7
2019-02-19T12:10:56.196Z,568.7
2019-02-19T12:11:58.064Z,568.9
2019-02-19T12:13:00.243Z,569
2019-02-19T12:14:02.685Z,569
2019-02-19T12:15:04.846Z,569.3
2019-02-19T12:16:07.014Z,569.1
2019-02-19T12:17:09.152Z,569.3
2019-02-19T12:18:11.574Z,569.5
2019-02-19T12:19:14.011Z,569.3
2019-02-19T12:20:16.466Z,569.1
2019-02-19T12:21:18.882Z,568.9
2019-02-19T12:22:21.305Z,569.7
2019-02-19T12:23:23.785Z,569.8
2019-02-19T12:24:26.220Z,569.3
2019-02-19T12:25:28.654Z,569
2019-02-19T12:26:30.279Z,569.4
2019-02-19T12:27:32.425Z,569.4
2019-02-19T12:28:34.588Z,570.2
2019-02-19T12:29:37.024Z,569.8
2019-02-19T12:30:39.539Z,570.1
2019-02-19T12:31:41.959Z,570.1
2019-02-19T12:32:44.107Z,570.1
2019-02-19T12:33:46.539Z,570.4
2019-02-19T12:34:48.686Z,570.7
2019-02-19T12:35:50.859Z,570.5
2019-02-19T12:36:53.302Z,570.9
2019-02-19T12:37:55.441Z,570.5
2019-02-19T12:38:57.875Z,571.1
2019-02-19T12:40:00.340Z,571.1
2019-02-19T12:41:02.785Z,570.7
2019-02-19T12:42:04.679Z,571
2019-02-19T12:43:06.813Z,571.2
2019-02-19T12:44:08.976Z,571.7
2019-02-19T12:45:11.416Z,571.6
2019-02-19T12:46:13.845Z,571.6
2019-02-19T12:47:16.340Z,571.5
2019-02-19T12:48:18.498Z,571.4
2019-02-19T12:49:20.670Z,571.5
2019-02-19T12:50:22.880Z,571.2
2019-02-19T12:52:30.340Z,571.2
2019-02-19T12:53:32.790Z,571.4
2019-02-19T12:54:35.240Z,571.4
2019-02-19T12:55:37.675Z,571.4
2019-02-19T12:56:40.129Z,571.4
2019-02-19T12:57:42.328Z,571.1
2019-02-19T12:58:44.777Z,571.8
2019-02-19T12:59:46.926Z,571.8
2019-02-19T13:00:49.089Z,571.7
2019-02-19T13:01:51.516Z,571.8
2019-02-19T13:02:53.401Z,572.1
2019-02-19T13:03:55.824Z,571.8
2019-02-19T13:04:57.699Z,571.7
2019-02-19T13:05:59.877Z,571.8
2019-02-19T13:07:02.054Z,571.7
2019-02-19T13:08:04.496Z,572.2
2019-02-19T13:09:06.933Z,572
2019-02-19T13:10:09.381Z,572.4
2019-02-19T13:11:10.974Z,572.4
2019-02-19T13:12:13.413Z,572.5
2019-02-19T13:13:15.590Z,572.8
2019-02-19T13:14:17.733Z,572.9
2019-02-19T13:15:20.165Z,572.7
2019-02-19T13:16:22.335Z,572.6
2019-02-19T13:17:24.762Z,572.8
2019-02-19T13:18:26.933Z,572.8
2019-02-19T13:19:29.087Z,572.5
2019-02-19T13:20:31.270Z,573
2019-02-19T13:21:33.453Z,572.8
2019-02-19T13:22:35.877Z,573.1
2019-02-19T13:23:38.307Z,573.1
2019-02-19T13:24:40.465Z,572.9
2019-02-19T13:25:42.890Z,572.9
2019-02-19T13:26:45.336Z,572.9
2019-02-19T13:27:47.510Z,573.3
2019-02-19T13:28:49.928Z,572.8
2019-02-19T13:29:52.090Z,573.4
2019-02-19T13:30:54.236Z,572.5
2019-02-19T13:31:56.417Z,573.4
2019-02-19T13:32:58.595Z,573.5
2019-02-19T13:34:01.136Z,572.8
2019-02-19T13:35:03.558Z,573
2019-02-19T13:36:05.714Z,572.7
2019-02-19T13:37:07.946Z,573.1